Time;durP1;ratioP1;P1;durP2;ratioP2;P2;SDS_P1;SDS_P2;PMS_P1;PMS_P2;Temp;Humidity;BMP_temperature;BMP_pressure;BME280_temperature;BME280_humidity;BME280_pressure;Samples;Min_cycle;Max_cycle;Signal;HPM_P1;HPM_P2
2023/05/07 00:00:30;;;;;;;;;;;;;;;19.66;61.39;101306.78;1251345;23;657;-63
2023/05/07 00:01:21;;;;;;;;;;;;;;;19.64;61.41;101303.38;1251195;23;665;-63
2023/05/07 00:02:11;;;;;;;;;;;;;;;19.64;61.81;101305.22;1247341;23;643;-64
2023/05/07 00:03:02;;;;;;;;;;;;;;;19.62;61.37;101304.50;1251290;23;646;-64
2023/05/07 00:03:52;;;;;;;;;;;;;;;19.61;61.13;101314.47;1251182;23;593;-63
2023/05/07 00:04:43;;;;;;;;;;;;;;;19.62;61.51;101315.31;1251323;23;653;-63
2023/05/07 00:05:34;;;;;;;;;;;;;;;19.61;61.47;101308.22;1247024;23;615;-63
2023/05/07 00:06:26;;;;;;;;;;;;;;;19.61;61.67;101314.47;1247300;23;715;-63
2023/05/07 00:07:16;;;;;;;;;;;;;;;19.62;61.70;101316.19;1247398;23;626;-63
2023/05/07 00:08:07;;;;;;;;;;;;;;;19.62;61.65;101313.47;1251270;23;649;-61
2023/05/07 00:08:57;;;;;;;;;;;;;;;19.61;60.96;101309.06;1251167;23;662;-60
2023/05/07 00:09:48;;;;;;;;;;;;;;;19.61;61.53;101314.47;1248669;23;602;-63
2023/05/07 00:10:38;;;;;;;;;;;;;;;19.62;61.07;101310.78;1251199;23;685;-63
2023/05/07 00:11:29;;;;;;;;;;;;;;;19.63;61.56;101315.19;1251404;23;633;-63
2023/05/07 00:12:19;;;;;;;;;;;;;;;19.63;61.51;101314.34;1250914;23;669;-63
2023/05/07 00:13:10;;;;;;;;;;;;;;;19.61;61.88;101313.63;1249533;23;677;-63
2023/05/07 00:14:00;;;;;;;;;;;;;;;19.61;61.84;101319.03;1247148;23;619;-63
2023/05/07 00:14:50;;;;;;;;;;;;;;;19.60;61.13;101315.47;1251110;23;637;-63
2023/05/07 00:15:41;;;;;;;;;;;;;;;19.58;60.76;101314.75;1251246;23;625;-63
2023/05/07 00:16:31;;;;;;;;;;;;;;;19.57;61.76;101315.75;1251188;23;665;-63
2023/05/07 00:17:22;;;;;;;;;;;;;;;19.60;61.18;101320.88;1251274;23;626;-63
2023/05/07 00:18:12;;;;;;;;;;;;;;;19.60;61.10;101318.19;1250542;23;547;-63
2023/05/07 00:19:03;;;;;;;;;;;;;;;19.61;61.27;101313.63;1251396;23;629;-63
2023/05/07 00:19:53;;;;;;;;;;;;;;;19.60;61.00;101314.63;1251095;23;637;-63
2023/05/07 00:20:44;;;;;;;;;;;;;;;19.57;60.88;101313.06;1247496;23;721;-63
2023/05/07 00:21:34;;;;;;;;;;;;;;;19.57;61.28;101309.50;1246920;23;603;-63
2023/05/07 00:22:24;;;;;;;;;;;;;;;19.56;60.85;101311.34;1251037;23;618;-63
2023/05/07 00:23:15;;;;;;;;;;;;;;;19.55;61.24;101315.06;1251314;23;661;-63
2023/05/07 00:24:05;;;;;;;;;;;;;;;19.53;60.95;101314.34;1251074;23;669;-63
2023/05/07 00:24:56;;;;;;;;;;;;;;;19.56;60.71;101303.25;1247014;23;638;-63
2023/05/07 00:25:46;;;;;;;;;;;;;;;19.55;61.29;101304.25;1251057;23;648;-63
2023/05/07 00:26:37;;;;;;;;;;;;;;;19.51;60.63;101308.25;1247449;23;807;-63
2023/05/07 00:27:27;;;;;;;;;;;;;;;19.52;60.88;101298.28;1251152;23;696;-63
2023/05/07 00:28:17;;;;;;;;;;;;;;;19.52;60.68;101301.00;1251148;23;661;-63
2023/05/07 00:29:08;;;;;;;;;;;;;;;19.50;61.59;101301.13;1251369;23;657;-63
2023/05/07 00:29:58;;;;;;;;;;;;;;;19.51;60.97;101297.44;1251068;23;657;-63
2023/05/07 00:30:49;;;;;;;;;;;;;;;19.53;60.51;101302.66;1251476;23;774;-63
2023/05/07 00:31:39;;;;;;;;;;;;;;;19.54;60.50;101302.53;1247507;23;646;-64
2023/05/07 00:32:30;;;;;;;;;;;;;;;19.57;61.01;101304.09;1246435;23;1932;-63
2023/05/07 00:33:20;;;;;;;;;;;;;;;19.57;61.75;101304.09;1249510;23;626;-64
2023/05/07 00:34:11;;;;;;;;;;;;;;;19.58;61.63;101303.09;1251358;23;645;-63
2023/05/07 00:35:01;;;;;;;;;;;;;;;19.57;61.12;101298.69;1247014;23;624;-63
2023/05/07 00:35:51;;;;;;;;;;;;;;;19.56;60.93;101305.09;1247429;23;634;-63
2023/05/07 00:36:42;;;;;;;;;;;;;;;19.56;61.46;101303.25;1251175;23;656;-64
2023/05/07 00:37:32;;;;;;;;;;;;;;;19.53;61.10;101306.22;1251121;23;669;-64
2023/05/07 00:38:23;;;;;;;;;;;;;;;19.54;61.35;101305.22;1246855;23;606;-63
2023/05/07 00:39:13;;;;;;;;;;;;;;;19.53;61.58;101300.81;1247229;23;646;-63
2023/05/07 00:40:06;;;;;;;;;;;;;;;19.53;61.19;101302.66;1249611;23;731;-63
2023/05/07 00:40:57;;;;;;;;;;;;;;;19.50;61.53;101298.44;1251392;23;653;-63
2023/05/07 00:41:47;;;;;;;;;;;;;;;19.50;60.92;101311.09;1251105;23;660;-64
2023/05/07 00:42:38;;;;;;;;;;;;;;;19.51;60.90;101302.00;1251158;23;723;-63
2023/05/07 00:43:28;;;;;;;;;;;;;;;19.53;61.31;101299.97;1251186;23;816;-63
2023/05/07 00:44:19;;;;;;;;;;;;;;;19.53;61.29;101303.53;1251007;23;645;-63
2023/05/07 00:45:10;;;;;;;;;;;;;;;19.50;60.70;101303.00;1251314;23;621;-63
2023/05/07 00:46:01;;;;;;;;;;;;;;;19.49;61.22;101302.09;1247513;23;670;-63
2023/05/07 00:46:51;;;;;;;;;;;;;;;19.50;60.80;101301.13;1246722;23;630;-63
2023/05/07 00:47:42;;;;;;;;;;;;;;;19.50;61.24;101295.72;1251008;23;637;-64
2023/05/07 00:48:32;;;;;;;;;;;;;;;19.51;61.07;101297.44;1247025;23;647;-64
2023/05/07 00:49:22;;;;;;;;;;;;;;;19.53;60.91;101298.13;1250959;23;633;-64
2023/05/07 00:50:13;;;;;;;;;;;;;;;19.55;61.31;101303.38;1251244;23;634;-64
2023/05/07 00:51:03;;;;;;;;;;;;;;;19.54;61.33;101302.53;1249642;23;645;-64
2023/05/07 00:51:54;;;;;;;;;;;;;;;19.55;60.47;101293.41;1251535;23;741;-64
2023/05/07 00:52:44;;;;;;;;;;;;;;;19.55;60.97;101293.41;1250997;23;1948;-64
2023/05/07 00:53:35;;;;;;;;;;;;;;;19.54;60.79;101294.41;1251217;23;777;-64
2023/05/07 00:54:25;;;;;;;;;;;;;;;19.53;61.06;101295.41;1250977;23;673;-64
2023/05/07 00:55:16;;;;;;;;;;;;;;;19.54;61.17;101305.22;1246840;23;619;-64
2023/05/07 00:56:07;;;;;;;;;;;;;;;19.53;60.34;101297.25;1251125;23;673;-64
2023/05/07 00:56:57;;;;;;;;;;;;;;;19.50;60.73;101295.72;1251276;23;594;-64
2023/05/07 00:57:47;;;;;;;;;;;;;;;19.50;61.28;101300.28;1251056;23;669;-63
2023/05/07 00:58:38;;;;;;;;;;;;;;;19.49;60.50;101294.00;1251327;23;618;-63
2023/05/07 00:59:28;;;;;;;;;;;;;;;19.50;61.08;101297.59;1247504;23;654;-63
2023/05/07 01:00:19;;;;;;;;;;;;;;;19.49;60.08;101288.59;1250073;23;787;-63
2023/05/07 01:01:10;;;;;;;;;;;;;;;19.50;61.06;101300.28;1249618;23;681;-63
2023/05/07 01:02:00;;;;;;;;;;;;;;;19.51;60.60;101299.28;1247500;23;654;-63
2023/05/07 01:02:51;;;;;;;;;;;;;;;19.51;60.05;101297.44;1247781;23;666;-63
2023/05/07 01:03:41;;;;;;;;;;;;;;;19.51;60.56;101291.19;1247778;23;676;-63
2023/05/07 01:04:31;;;;;;;;;;;;;;;19.50;60.74;101289.47;1251116;23;633;-63
2023/05/07 01:05:22;;;;;;;;;;;;;;;19.50;60.43;101292.19;1251064;23;642;-63
2023/05/07 01:06:12;;;;;;;;;;;;;;;19.48;60.85;101296.84;1247128;23;642;-63
2023/05/07 01:07:03;;;;;;;;;;;;;;;19.47;60.76;101293.28;1249552;23;630;-63
2023/05/07 01:07:54;;;;;;;;;;;;;;;19.46;60.55;101294.28;1247326;23;638;-64
2023/05/07 01:08:44;;;;;;;;;;;;;;;19.46;60.62;101294.28;1247135;23;647;-63
2023/05/07 01:09:35;;;;;;;;;;;;;;;19.49;61.12;101295.84;1251344;23;625;-63
2023/05/07 01:10:25;;;;;;;;;;;;;;;19.50;60.18;101301.13;1248603;23;650;-63
2023/05/07 01:11:16;;;;;;;;;;;;;;;19.51;60.65;101297.44;1247315;23;602;-63
2023/05/07 01:12:06;;;;;;;;;;;;;;;19.52;60.40;101296.44;1251253;23;656;-63
2023/05/07 01:12:56;;;;;;;;;;;;;;;19.53;60.40;101295.41;1251096;23;1932;-63
2023/05/07 01:13:47;;;;;;;;;;;;;;;19.54;61.44;101307.09;1246923;23;638;-63
2023/05/07 01:14:37;;;;;;;;;;;;;;;19.53;61.31;101298.13;1251219;23;614;-63
2023/05/07 01:15:28;;;;;;;;;;;;;;;19.51;61.37;101302.00;1250885;23;626;-61
2023/05/07 01:16:18;;;;;;;;;;;;;;;19.50;60.83;101303.84;1250549;23;633;-61
2023/05/07 01:17:09;;;;;;;;;;;;;;;19.48;60.80;101313.06;1250931;23;618;-61
2023/05/07 01:18:00;;;;;;;;;;;;;;;19.45;61.71;101303.38;1251074;23;634;-61
2023/05/07 01:18:50;;;;;;;;;;;;;;;19.45;61.21;101303.38;1251146;23;668;-61
2023/05/07 01:19:41;;;;;;;;;;;;;;;19.45;61.23;101307.94;1250922;23;629;-61
2023/05/07 01:20:31;;;;;;;;;;;;;;;19.46;61.42;101306.94;1251155;23;669;-61
2023/05/07 01:21:21;;;;;;;;;;;;;;;19.45;61.51;101302.53;1250987;23;641;-61
2023/05/07 01:22:12;;;;;;;;;;;;;;;19.45;60.53;101305.25;1249242;23;638;-61
2023/05/07 01:23:02;;;;;;;;;;;;;;;19.42;60.58;101300.97;1251165;23;646;-61
2023/05/07 01:23:53;;;;;;;;;;;;;;;19.42;60.83;101306.38;1251222;23;539;-61
2023/05/07 01:24:43;;;;;;;;;;;;;;;19.41;61.17;101300.13;1251057;23;708;-61
2023/05/07 01:25:34;;;;;;;;;;;;;;;19.40;61.02;101297.56;1250923;23;665;-61
2023/05/07 01:26:24;;;;;;;;;;;;;;;19.41;61.13;101289.31;1251127;23;645;-61
2023/05/07 01:27:15;;;;;;;;;;;;;;;19.43;60.54;101299.97;1251083;23;619;-61
2023/05/07 01:28:05;;;;;;;;;;;;;;;19.42;60.43;101299.13;1246933;23;611;-61
2023/05/07 01:28:56;;;;;;;;;;;;;;;19.42;60.65;101296.41;1251282;23;590;-61
2023/05/07 01:29:46;;;;;;;;;;;;;;;19.43;60.74;101286.47;1251174;23;614;-61
2023/05/07 01:30:37;;;;;;;;;;;;;;;19.41;61.12;101292.00;1246775;23;619;-61
2023/05/07 01:31:27;;;;;;;;;;;;;;;19.39;60.26;101295.84;1250881;23;653;-61
2023/05/07 01:32:18;;;;;;;;;;;;;;;19.39;60.66;101294.00;1250745;23;700;-61
2023/05/07 01:33:08;;;;;;;;;;;;;;;19.39;60.66;101291.31;1250950;23;669;-61
2023/05/07 01:33:58;;;;;;;;;;;;;;;19.40;60.73;101297.56;1250696;23;637;-61
2023/05/07 01:34:49;;;;;;;;;;;;;;;19.40;61.08;101297.56;1246584;23;729;-61
2023/05/07 01:35:39;;;;;;;;;;;;;;;19.39;60.61;101291.31;1246840;23;771;-62
2023/05/07 01:36:30;;;;;;;;;;;;;;;19.39;60.46;101290.44;1251063;23;606;-62
2023/05/07 01:37:20;;;;;;;;;;;;;;;19.39;60.91;101295.84;1250812;23;646;-62
2023/05/07 01:38:11;;;;;;;;;;;;;;;19.36;60.29;101293.44;1250636;23;621;-62
2023/05/07 01:39:01;;;;;;;;;;;;;;;19.37;60.77;101292.44;1247062;23;635;-62
2023/05/07 01:39:51;;;;;;;;;;;;;;;19.35;60.14;101291.72;1251094;23;747;-62
2023/05/07 01:40:42;;;;;;;;;;;;;;;19.34;60.22;101296.31;1246420;23;744;-61
2023/05/07 01:41:32;;;;;;;;;;;;;;;19.35;60.84;101292.59;1247223;23;674;-62
2023/05/07 01:42:23;;;;;;;;;;;;;;;19.37;60.25;101296.00;1249591;23;625;-62
2023/05/07 01:43:13;;;;;;;;;;;;;;;19.34;60.41;101299.00;1247411;23;686;-62
2023/05/07 01:44:04;;;;;;;;;;;;;;;19.36;60.83;101296.13;1250677;23;654;-62
2023/05/07 01:44:55;;;;;;;;;;;;;;;19.36;61.01;101288.03;1250094;23;637;-62
2023/05/07 01:45:45;;;;;;;;;;;;;;;19.35;61.15;101291.72;1246639;23;681;-62
2023/05/07 01:46:35;;;;;;;;;;;;;;;19.34;60.64;101290.06;1250644;23;645;-62
2023/05/07 01:47:26;;;;;;;;;;;;;;;19.34;60.66;101290.06;1251596;23;1162;-62
2023/05/07 01:48:16;;;;;;;;;;;;;;;19.35;60.73;101287.19;1249272;23;765;-62
2023/05/07 01:49:07;;;;;;;;;;;;;;;19.34;60.80;101290.06;1248863;23;615;-62
2023/05/07 01:49:57;;;;;;;;;;;;;;;19.34;60.42;101290.06;1249139;23;599;-62
2023/05/07 01:50:48;;;;;;;;;;;;;;;19.33;60.64;101293.75;1249189;23;658;-62
2023/05/07 01:51:38;;;;;;;;;;;;;;;19.32;60.57;101284.78;1249216;23;603;-62
2023/05/07 01:52:28;;;;;;;;;;;;;;;19.31;60.18;101291.19;1249052;23;709;-62
2023/05/07 01:53:19;;;;;;;;;;;;;;;19.31;60.66;101288.50;1249124;23;621;-62
2023/05/07 01:54:09;;;;;;;;;;;;;;;19.32;60.70;101292.03;1249205;23;740;-62
2023/05/07 01:55:00;;;;;;;;;;;;;;;19.34;60.91;101295.47;1249058;23;642;-61
2023/05/07 01:55:50;;;;;;;;;;;;;;;19.32;60.93;101294.75;1248986;23;611;-62
2023/05/07 01:56:41;;;;;;;;;;;;;;;19.30;61.17;101291.34;1249372;23;650;-62
2023/05/07 01:57:31;;;;;;;;;;;;;;;19.30;61.19;101297.59;1249097;23;606;-61
2023/05/07 01:58:21;;;;;;;;;;;;;;;19.30;60.92;101300.28;1249065;23;693;-62
2023/05/07 01:59:13;;;;;;;;;;;;;;;19.30;61.03;101297.59;1249056;23;681;-62
2023/05/07 02:00:04;;;;;;;;;;;;;;;19.31;61.30;101295.75;1248289;23;658;-62
2023/05/07 02:00:55;;;;;;;;;;;;;;;19.32;60.47;101302.84;1248192;23;646;-62
2023/05/07 02:01:45;;;;;;;;;;;;;;;19.33;61.06;101301.84;1242835;23;646;-62
2023/05/07 02:02:36;;;;;;;;;;;;;;;19.32;60.27;101292.03;1241957;23;639;-62
2023/05/07 02:03:26;;;;;;;;;;;;;;;19.31;60.48;101301.16;1248065;23;611;-64
2023/05/07 02:04:17;;;;;;;;;;;;;;;19.31;61.08;101298.44;1249224;23;682;-64
2023/05/07 02:05:07;;;;;;;;;;;;;;;19.33;61.52;101300.00;1249126;23;658;-62
2023/05/07 02:05:58;;;;;;;;;;;;;;;19.33;61.33;101301.84;1249133;23;634;-62
2023/05/07 02:06:48;;;;;;;;;;;;;;;19.35;61.77;101297.13;1249049;23;647;-62
2023/05/07 02:07:38;;;;;;;;;;;;;;;19.36;61.63;101304.25;1249128;23;615;-62
2023/05/07 02:08:29;;;;;;;;;;;;;;;19.38;61.91;101302.25;1249338;23;670;-62
2023/05/07 02:09:20;;;;;;;;;;;;;;;19.35;61.98;101297.97;1248342;23;666;-61
2023/05/07 02:10:10;;;;;;;;;;;;;;;19.34;61.91;101298.16;1249094;23;717;-61
2023/05/07 02:11:01;;;;;;;;;;;;;;;19.34;61.82;101296.31;1249551;23;618;-61
2023/05/07 02:11:51;;;;;;;;;;;;;;;19.34;61.18;101293.59;1249451;23;642;-61
2023/05/07 02:12:42;;;;;;;;;;;;;;;19.32;61.55;101292.03;1249190;23;1890;-61
2023/05/07 02:13:33;;;;;;;;;;;;;;;19.31;61.96;101290.34;1247862;23;663;-61
2023/05/07 02:14:23;;;;;;;;;;;;;;;19.31;61.48;101290.34;1249213;23;615;-61
2023/05/07 02:15:14;;;;;;;;;;;;;;;19.34;61.40;101295.47;1249254;23;625;-63
2023/05/07 02:16:04;;;;;;;;;;;;;;;19.34;61.88;101290.06;1249047;23;638;-62
2023/05/07 02:16:55;;;;;;;;;;;;;;;19.35;61.62;101287.19;1249189;23;641;-62
2023/05/07 02:17:45;;;;;;;;;;;;;;;19.37;61.17;101281.63;1249092;23;598;-62
2023/05/07 02:18:35;;;;;;;;;;;;;;;19.35;60.94;101291.72;1248961;23;665;-62
2023/05/07 02:19:26;;;;;;;;;;;;;;;19.32;61.21;101289.34;1249203;23;646;-62
2023/05/07 02:20:16;;;;;;;;;;;;;;;19.32;61.29;101283.94;1249193;23;625;-62
2023/05/07 02:21:07;;;;;;;;;;;;;;;19.30;61.42;101283.22;1249168;23;614;-62
2023/05/07 02:21:57;;;;;;;;;;;;;;;19.30;60.89;101281.38;1249365;23;616;-62
2023/05/07 02:22:48;;;;;;;;;;;;;;;19.32;62.00;101286.63;1249181;23;610;-62
2023/05/07 02:23:38;;;;;;;;;;;;;;;19.31;61.77;101288.50;1249057;23;661;-62
2023/05/07 02:24:29;;;;;;;;;;;;;;;19.32;60.90;101278.53;1249113;23;677;-62
2023/05/07 02:25:20;;;;;;;;;;;;;;;19.30;61.48;101280.53;1248135;23;642;-62
2023/05/07 02:26:11;;;;;;;;;;;;;;;19.30;61.55;101288.63;1249052;23;630;-62
2023/05/07 02:27:02;;;;;;;;;;;;;;;19.30;61.64;101285.94;1248127;23;602;-62
2023/05/07 02:27:52;;;;;;;;;;;;;;;19.28;61.70;101287.91;1248230;23;1002;-62
2023/05/07 02:28:43;;;;;;;;;;;;;;;19.25;61.44;101291.75;1248539;23;665;-62
2023/05/07 02:29:33;;;;;;;;;;;;;;;19.29;60.81;101284.22;1249103;23;602;-62
2023/05/07 02:30:24;;;;;;;;;;;;;;;19.30;61.35;101289.47;1248984;23;662;-62
2023/05/07 02:31:15;;;;;;;;;;;;;;;19.32;61.62;101286.63;1248426;23;676;-62
2023/05/07 02:32:05;;;;;;;;;;;;;;;19.32;61.59;101286.63;1249054;23;591;-62
2023/05/07 02:32:56;;;;;;;;;;;;;;;19.33;61.05;101288.34;1249190;23;1901;-62
2023/05/07 02:33:46;;;;;;;;;;;;;;;19.34;61.21;101287.34;1249392;23;689;-62
2023/05/07 02:34:36;;;;;;;;;;;;;;;19.33;61.71;101280.25;1249396;23;673;-62
2023/05/07 02:35:27;;;;;;;;;;;;;;;19.32;61.37;101282.09;1251735;23;634;-62
2023/05/07 02:36:17;;;;;;;;;;;;;;;19.33;61.19;101291.06;1249286;23;614;-62
2023/05/07 02:37:08;;;;;;;;;;;;;;;19.33;60.91;101288.34;1248980;23;681;-62
2023/05/07 02:37:58;;;;;;;;;;;;;;;19.33;61.20;101293.75;1249356;23;646;-62
2023/05/07 02:38:49;;;;;;;;;;;;;;;19.34;61.44;101295.47;1249363;23;673;-62
2023/05/07 02:39:39;;;;;;;;;;;;;;;19.34;62.05;101293.59;1249170;23;595;-62
2023/05/07 02:40:33;;;;;;;;;;;;;;;19.34;61.04;101295.47;1249113;23;697;-62
2023/05/07 02:41:23;;;;;;;;;;;;;;;19.31;61.73;101295.75;1247378;23;646;-62
2023/05/07 02:42:14;;;;;;;;;;;;;;;19.28;61.53;101288.78;1251296;23;676;-62
2023/05/07 02:43:05;;;;;;;;;;;;;;;19.27;61.29;101286.22;1248428;23;742;-62
2023/05/07 02:43:55;;;;;;;;;;;;;;;19.27;61.79;101297.03;1248469;23;631;-62
2023/05/07 02:44:45;;;;;;;;;;;;;;;19.25;62.15;101289.06;1242026;23;718;-63
2023/05/07 02:45:37;;;;;;;;;;;;;;;19.27;61.40;101292.47;1241786;23;655;-62
2023/05/07 02:46:27;;;;;;;;;;;;;;;19.26;61.52;101281.81;1243596;23;677;-62
2023/05/07 02:47:18;;;;;;;;;;;;;;;19.26;61.16;101292.63;1246116;23;1219;-62
2023/05/07 02:48:08;;;;;;;;;;;;;;;19.27;61.56;101288.91;1249278;23;625;-62
2023/05/07 02:48:59;;;;;;;;;;;;;;;19.26;61.46;101289.91;1250706;23;622;-62
2023/05/07 02:49:49;;;;;;;;;;;;;;;19.27;61.15;101289.75;1250823;23;617;-62
2023/05/07 02:50:40;;;;;;;;;;;;;;;19.27;61.47;101291.63;1250692;23;689;-62
2023/05/07 02:51:30;;;;;;;;;;;;;;;19.25;61.61;101283.66;1250963;23;614;-62
2023/05/07 02:52:20;;;;;;;;;;;;;;;19.24;60.47;101289.19;1250780;23;782;-62
2023/05/07 02:53:11;;;;;;;;;;;;;;;19.22;61.99;101285.78;1250671;23;633;-62
2023/05/07 02:54:01;;;;;;;;;;;;;;;19.22;61.90;101291.19;1250680;23;646;-62
2023/05/07 02:54:55;;;;;;;;;;;;;;;19.23;61.29;101287.50;1251053;23;630;-62
2023/05/07 02:55:45;;;;;;;;;;;;;;;19.20;61.63;101288.63;1249691;23;601;-62
2023/05/07 02:56:36;;;;;;;;;;;;;;;19.21;60.98;101289.47;1250263;23;693;-62
2023/05/07 02:57:26;;;;;;;;;;;;;;;19.22;61.47;101291.19;1248745;23;740;-62
2023/05/07 02:58:16;;;;;;;;;;;;;;;19.21;60.96;101284.94;1250625;23;673;-62
2023/05/07 02:59:07;;;;;;;;;;;;;;;19.21;61.02;101289.47;1246999;23;655;-62
2023/05/07 02:59:57;;;;;;;;;;;;;;;19.20;61.49;101294.03;1251029;23;598;-62
2023/05/07 03:00:48;;;;;;;;;;;;;;;19.20;60.81;101293.19;1250725;23;682;-62
2023/05/07 03:01:38;;;;;;;;;;;;;;;19.20;61.32;101293.19;1251016;23;630;-62
2023/05/07 03:02:29;;;;;;;;;;;;;;;19.20;60.39;101287.78;1250339;23;676;-62
2023/05/07 03:03:19;;;;;;;;;;;;;;;19.21;60.86;101292.19;1250814;23;661;-62
2023/05/07 03:04:10;;;;;;;;;;;;;;;19.19;60.48;101291.47;1247417;23;733;-63
2023/05/07 03:05:01;;;;;;;;;;;;;;;19.18;60.77;101289.75;1247519;23;669;-62
2023/05/07 03:05:51;;;;;;;;;;;;;;;19.21;60.56;101293.03;1247846;23;682;-63
2023/05/07 03:06:42;;;;;;;;;;;;;;;19.25;60.51;101290.91;1246538;23;689;-62
2023/05/07 03:07:32;;;;;;;;;;;;;;;19.24;60.36;101295.47;1247093;23;603;-62
2023/05/07 03:08:23;;;;;;;;;;;;;;;19.26;60.45;101289.91;1247140;23;638;-62
2023/05/07 03:09:13;;;;;;;;;;;;;;;19.25;60.72;101293.59;1249205;23;604;-62
2023/05/07 03:10:04;;;;;;;;;;;;;;;19.25;60.65;101289.06;1250795;23;657;-62
2023/05/07 03:10:54;;;;;;;;;;;;;;;19.24;60.18;101286.50;1250788;23;598;-62
2023/05/07 03:11:44;;;;;;;;;;;;;;;19.24;60.30;101286.50;1251090;23;1143;-62
2023/05/07 03:12:35;;;;;;;;;;;;;;;19.24;60.71;101283.78;1247269;23;1886;-62
2023/05/07 03:13:26;;;;;;;;;;;;;;;19.22;60.98;101293.88;1251018;23;641;-62
2023/05/07 03:14:16;;;;;;;;;;;;;;;19.20;60.56;101282.38;1250918;23;676;-62
2023/05/07 03:15:06;;;;;;;;;;;;;;;19.20;60.54;101282.38;1248582;23;610;-62
2023/05/07 03:15:57;;;;;;;;;;;;;;;19.21;60.89;101284.94;1250610;23;668;-62
2023/05/07 03:16:47;;;;;;;;;;;;;;;19.19;60.85;101277.97;1250846;23;669;-62
2023/05/07 03:17:38;;;;;;;;;;;;;;;19.18;61.12;101284.34;1247153;23;673;-62
2023/05/07 03:18:28;;;;;;;;;;;;;;;19.18;61.15;101281.66;1250856;23;617;-63
2023/05/07 03:19:19;;;;;;;;;;;;;;;19.18;60.65;101285.22;1250630;23;665;-62
2023/05/07 03:20:09;;;;;;;;;;;;;;;19.16;61.08;101289.94;1251000;23;653;-62
2023/05/07 03:20:59;;;;;;;;;;;;;;;19.15;60.82;101284.69;1250849;23;569;-62
2023/05/07 03:21:50;;;;;;;;;;;;;;;19.13;61.03;101286.66;1249224;23;685;-62
2023/05/07 03:22:40;;;;;;;;;;;;;;;19.12;60.63;101285.81;1250713;23;692;-61
2023/05/07 03:23:31;;;;;;;;;;;;;;;19.14;60.51;101283.81;1250588;23;523;-62
2023/05/07 03:24:21;;;;;;;;;;;;;;;19.13;60.05;101284.81;1250756;23;665;-62
2023/05/07 03:25:12;;;;;;;;;;;;;;;19.14;60.70;101285.66;1250606;23;645;-63
2023/05/07 03:26:02;;;;;;;;;;;;;;;19.14;60.59;101277.56;1250741;23;650;-62
2023/05/07 03:26:52;;;;;;;;;;;;;;;19.18;61.17;101287.06;1246963;23;631;-62
2023/05/07 03:27:43;;;;;;;;;;;;;;;19.19;60.70;101286.06;1251182;23;646;-62
2023/05/07 03:28:33;;;;;;;;;;;;;;;19.20;60.32;101282.38;1251025;23;621;-62
2023/05/07 03:29:24;;;;;;;;;;;;;;;19.20;60.53;101279.66;1248509;23;599;-62
2023/05/07 03:30:14;;;;;;;;;;;;;;;19.17;59.84;101280.00;1250710;23;653;-62
2023/05/07 03:31:05;;;;;;;;;;;;;;;19.16;61.08;101273.72;1250633;23;650;-62
2023/05/07 03:31:55;;;;;;;;;;;;;;;19.16;60.25;101276.44;1250456;23;657;-62
2023/05/07 03:32:46;;;;;;;;;;;;;;;19.15;61.06;101280.13;1250517;23;1937;-62
2023/05/07 03:33:36;;;;;;;;;;;;;;;19.18;61.25;101276.25;1250631;23;637;-62
2023/05/07 03:34:27;;;;;;;;;;;;;;;19.18;60.90;101273.56;1250818;23;673;-62
2023/05/07 03:35:17;;;;;;;;;;;;;;;19.18;60.93;101273.56;1246379;23;587;-62
2023/05/07 03:36:07;;;;;;;;;;;;;;;19.19;60.78;101281.53;1250628;23;707;-62
2023/05/07 03:36:58;;;;;;;;;;;;;;;19.19;61.17;101275.25;1249123;23;701;-62
2023/05/07 03:37:48;;;;;;;;;;;;;;;19.16;61.24;101272.88;1246557;23;615;-62
2023/05/07 03:38:39;;;;;;;;;;;;;;;19.16;61.37;101278.28;1250514;23;704;-62
2023/05/07 03:39:32;;;;;;;;;;;;;;;19.14;61.37;101282.97;1250667;23;610;-62
2023/05/07 03:40:22;;;;;;;;;;;;;;;19.14;61.01;101285.66;1250665;23;622;-62
2023/05/07 03:41:12;;;;;;;;;;;;;;;19.16;61.11;101283.69;1250051;23;602;-62
2023/05/07 03:42:03;;;;;;;;;;;;;;;19.14;61.50;101288.38;1250554;23;661;-62
2023/05/07 03:42:53;;;;;;;;;;;;;;;19.16;61.07;101287.25;1250901;23;622;-62
2023/05/07 03:43:44;;;;;;;;;;;;;;;19.17;61.16;101280.00;1246943;23;642;-62
2023/05/07 03:44:36;;;;;;;;;;;;;;;19.16;60.87;101284.53;1250928;23;593;-62
2023/05/07 03:45:26;;;;;;;;;;;;;;;19.15;60.10;101284.69;1246627;23;595;-62
2023/05/07 03:46:16;;;;;;;;;;;;;;;19.16;60.77;101275.56;1250733;23;638;-64
2023/05/07 03:47:07;;;;;;;;;;;;;;;19.16;60.60;101280.97;1246693;23;1089;-62
2023/05/07 03:47:58;;;;;;;;;;;;;;;19.16;60.90;101280.97;1250754;23;626;-62
2023/05/07 03:48:48;;;;;;;;;;;;;;;19.16;60.64;101276.44;1251207;23;582;-62
2023/05/07 03:49:39;;;;;;;;;;;;;;;19.16;61.35;101278.28;1247377;23;674;-62
2023/05/07 03:50:29;;;;;;;;;;;;;;;19.15;60.17;101279.28;1249851;23;615;-62
2023/05/07 03:51:20;;;;;;;;;;;;;;;19.14;60.67;101277.56;1247778;23;974;-62
2023/05/07 03:52:10;;;;;;;;;;;;;;;19.13;61.09;101278.56;1246935;23;620;-62
2023/05/07 03:53:01;;;;;;;;;;;;;;;19.12;61.02;101280.41;1247306;23;1874;-62
2023/05/07 03:53:56;;;;;;;;;;;;;;;19.13;61.01;101282.13;1247538;23;686;-62
2023/05/07 03:54:47;;;;;;;;;;;;;;;19.14;60.43;101285.66;1250964;23;625;-62
2023/05/07 03:55:37;;;;;;;;;;;;;;;19.16;60.97;101286.38;1250770;23;606;-62
2023/05/07 03:56:28;;;;;;;;;;;;;;;19.15;60.50;101281.97;1251176;23;626;-62
2023/05/07 03:57:18;;;;;;;;;;;;;;;19.12;60.13;101280.41;1251305;23;617;-62
2023/05/07 03:58:09;;;;;;;;;;;;;;;19.13;60.42;101290.22;1251161;23;642;-63
2023/05/07 03:58:59;;;;;;;;;;;;;;;19.13;61.42;101292.06;1251186;23;602;-62
2023/05/07 03:59:50;;;;;;;;;;;;;;;19.12;61.09;101287.66;1251136;23;681;-62
2023/05/07 04:00:40;;;;;;;;;;;;;;;19.10;61.10;101287.81;1246708;23;643;-61
2023/05/07 04:01:31;;;;;;;;;;;;;;;19.10;60.66;101287.81;1251107;23;662;-62
2023/05/07 04:02:21;;;;;;;;;;;;;;;19.11;60.91;101288.66;1251412;23;751;-62
2023/05/07 04:03:12;;;;;;;;;;;;;;;19.12;60.20;101287.66;1251247;23;656;-62
2023/05/07 04:04:03;;;;;;;;;;;;;;;19.14;59.98;101291.06;1249282;23;639;-62
2023/05/07 04:04:53;;;;;;;;;;;;;;;19.11;60.85;101288.66;1247243;23;682;-62
2023/05/07 04:05:44;;;;;;;;;;;;;;;19.11;60.94;101288.66;1247569;23;682;-62
2023/05/07 04:06:35;;;;;;;;;;;;;;;19.13;59.99;101292.94;1247632;23;662;-62
2023/05/07 04:07:25;;;;;;;;;;;;;;;19.14;60.52;101293.78;1247279;23;607;-62
2023/05/07 04:08:15;;;;;;;;;;;;;;;19.13;61.09;101298.31;1250975;23;598;-62
2023/05/07 04:09:06;;;;;;;;;;;;;;;19.10;60.88;101287.81;1250788;23;645;-62
2023/05/07 04:09:56;;;;;;;;;;;;;;;19.12;60.38;101301.16;1250275;23;602;-62
2023/05/07 04:10:47;;;;;;;;;;;;;;;19.10;60.98;101298.59;1250955;23;664;-62
2023/05/07 04:11:39;;;;;;;;;;;;;;;19.10;60.98;101305.84;1251118;23;653;-62
2023/05/07 04:12:30;;;;;;;;;;;;;;;19.09;60.95;101302.31;1251082;23;629;-62
2023/05/07 04:13:20;;;;;;;;;;;;;;;19.13;60.55;101308.28;1246729;23;615;-62
2023/05/07 04:14:11;;;;;;;;;;;;;;;19.12;60.67;101303.88;1247054;23;638;-62
2023/05/07 04:15:01;;;;;;;;;;;;;;;19.11;61.07;101302.16;1246600;23;627;-62
2023/05/07 04:15:52;;;;;;;;;;;;;;;19.09;61.11;101307.72;1251058;23;733;-62
2023/05/07 04:16:42;;;;;;;;;;;;;;;19.12;60.77;101299.31;1247425;23;757;-62
2023/05/07 04:17:32;;;;;;;;;;;;;;;19.13;60.35;101298.31;1247352;23;622;-62
2023/05/07 04:18:23;;;;;;;;;;;;;;;19.12;60.81;101301.16;1247773;23;639;-62
2023/05/07 04:19:13;;;;;;;;;;;;;;;19.11;60.43;101304.88;1246721;23;650;-62
2023/05/07 04:20:04;;;;;;;;;;;;;;;19.11;61.40;101304.88;1251035;23;610;-62
2023/05/07 04:20:54;;;;;;;;;;;;;;;19.12;60.92;101310.13;1251136;23;617;-62
2023/05/07 04:21:45;;;;;;;;;;;;;;;19.14;60.85;101302.75;1250820;23;637;-62
2023/05/07 04:22:35;;;;;;;;;;;;;;;19.13;60.74;101302.88;1251373;23;661;-62
2023/05/07 04:23:25;;;;;;;;;;;;;;;19.11;59.98;101307.56;1251170;23;606;-62
2023/05/07 04:24:16;;;;;;;;;;;;;;;19.10;60.49;101306.72;1247381;23;630;-62
2023/05/07 04:25:07;;;;;;;;;;;;;;;19.12;61.25;101301.16;1251253;23;614;-62
2023/05/07 04:25:58;;;;;;;;;;;;;;;19.13;60.83;101297.47;1251135;23;610;-62
2023/05/07 04:26:48;;;;;;;;;;;;;;;19.12;60.96;101295.75;1251126;23;649;-62